sensor_id;sensor_type;location;lat;lon;timestamp;P1;durP1;ratioP1;P2;durP2;ratioP2
14141;SDS011;7151;52.246;4.820;2022-08-23T00:00:03;3.80;;;3.03;;
14141;SDS011;7151;52.246;4.820;2022-08-23T00:02:31;4.23;;;3.20;;
14141;SDS011;7151;52.246;4.820;2022-08-23T00:04:57;3.23;;;2.90;;
14141;SDS011;7151;52.246;4.820;2022-08-23T00:07:22;3.07;;;2.50;;
14141;SDS011;7151;52.246;4.820;2022-08-23T00:09:48;3.73;;;2.60;;
14141;SDS011;7151;52.246;4.820;2022-08-23T00:12:15;4.87;;;2.60;;
14141;SDS011;7151;52.246;4.820;2022-08-23T00:14:47;3.67;;;2.77;;
14141;SDS011;7151;52.246;4.820;2022-08-23T00:17:18;5.47;;;2.47;;
14141;SDS011;7151;52.246;4.820;2022-08-23T00:19:44;3.53;;;2.40;;
14141;SDS011;7151;52.246;4.820;2022-08-23T00:22:10;4.10;;;2.57;;
14141;SDS011;7151;52.246;4.820;2022-08-23T00:24:37;5.87;;;2.83;;
14141;SDS011;7151;52.246;4.820;2022-08-23T00:27:10;7.50;;;3.40;;
14141;SDS011;7151;52.246;4.820;2022-08-23T00:32:06;6.13;;;2.80;;
14141;SDS011;7151;52.246;4.820;2022-08-23T00:34:34;6.87;;;3.10;;
14141;SDS011;7151;52.246;4.820;2022-08-23T00:37:01;5.77;;;3.70;;
14141;SDS011;7151;52.246;4.820;2022-08-23T00:39:27;5.03;;;3.40;;
14141;SDS011;7151;52.246;4.820;2022-08-23T00:41:55;4.93;;;2.47;;
14141;SDS011;7151;52.246;4.820;2022-08-23T00:44:47;4.43;;;3.07;;
14141;SDS011;7151;52.246;4.820;2022-08-23T00:47:32;4.03;;;2.77;;
14141;SDS011;7151;52.246;4.820;2022-08-23T00:53:00;6.10;;;2.77;;
14141;SDS011;7151;52.246;4.820;2022-08-23T00:55:30;3.83;;;2.97;;
14141;SDS011;7151;52.246;4.820;2022-08-23T00:57:57;3.97;;;2.33;;
14141;SDS011;7151;52.246;4.820;2022-08-23T01:00:24;5.30;;;2.40;;
14141;SDS011;7151;52.246;4.820;2022-08-23T01:02:51;5.30;;;2.73;;
14141;SDS011;7151;52.246;4.820;2022-08-23T01:05:18;3.67;;;3.07;;
14141;SDS011;7151;52.246;4.820;2022-08-23T01:07:53;3.13;;;2.30;;
14141;SDS011;7151;52.246;4.820;2022-08-23T01:10:30;3.40;;;2.73;;
14141;SDS011;7151;52.246;4.820;2022-08-23T01:13:04;4.87;;;3.00;;
14141;SDS011;7151;52.246;4.820;2022-08-23T01:15:36;3.37;;;2.40;;
14141;SDS011;7151;52.246;4.820;2022-08-23T01:18:07;3.43;;;2.53;;
14141;SDS011;7151;52.246;4.820;2022-08-23T01:20:37;7.13;;;2.67;;
14141;SDS011;7151;52.246;4.820;2022-08-23T01:23:25;4.50;;;2.77;;
14141;SDS011;7151;52.246;4.820;2022-08-23T01:26:18;5.03;;;2.97;;
14141;SDS011;7151;52.246;4.820;2022-08-23T01:28:46;5.67;;;2.90;;
14141;SDS011;7151;52.246;4.820;2022-08-23T01:31:12;6.80;;;2.90;;
14141;SDS011;7151;52.246;4.820;2022-08-23T01:33:40;4.53;;;3.17;;
14141;SDS011;7151;52.246;4.820;2022-08-23T01:36:10;4.63;;;3.33;;
14141;SDS011;7151;52.246;4.820;2022-08-23T01:38:40;4.40;;;3.57;;
14141;SDS011;7151;52.246;4.820;2022-08-23T01:41:06;4.57;;;3.50;;
14141;SDS011;7151;52.246;4.820;2022-08-23T01:43:32;5.83;;;3.60;;
14141;SDS011;7151;52.246;4.820;2022-08-23T01:46:05;3.77;;;3.10;;
14141;SDS011;7151;52.246;4.820;2022-08-23T01:48:32;5.83;;;3.43;;
14141;SDS011;7151;52.246;4.820;2022-08-23T01:50:57;4.67;;;3.27;;
14141;SDS011;7151;52.246;4.820;2022-08-23T01:53:23;12.80;;;3.83;;
14141;SDS011;7151;52.246;4.820;2022-08-23T01:55:48;6.00;;;3.73;;
14141;SDS011;7151;52.246;4.820;2022-08-23T01:58:14;7.23;;;4.07;;
14141;SDS011;7151;52.246;4.820;2022-08-23T02:00:40;7.77;;;3.80;;
14141;SDS011;7151;52.246;4.820;2022-08-23T02:03:08;4.30;;;3.77;;
14141;SDS011;7151;52.246;4.820;2022-08-23T02:05:34;3.70;;;3.33;;
14141;SDS011;7151;52.246;4.820;2022-08-23T02:08:01;4.67;;;3.20;;
14141;SDS011;7151;52.246;4.820;2022-08-23T02:10:47;5.07;;;3.33;;
14141;SDS011;7151;52.246;4.820;2022-08-23T02:13:13;5.73;;;3.70;;
14141;SDS011;7151;52.246;4.820;2022-08-23T02:15:41;4.10;;;3.33;;
14141;SDS011;7151;52.246;4.820;2022-08-23T02:18:08;4.37;;;3.80;;
14141;SDS011;7151;52.246;4.820;2022-08-23T02:20:34;7.87;;;3.53;;
14141;SDS011;7151;52.246;4.820;2022-08-23T02:23:04;5.10;;;3.67;;
14141;SDS011;7151;52.246;4.820;2022-08-23T02:25:29;3.43;;;3.13;;
14141;SDS011;7151;52.246;4.820;2022-08-23T02:27:55;4.40;;;3.60;;
14141;SDS011;7151;52.246;4.820;2022-08-23T02:30:21;5.77;;;4.47;;
14141;SDS011;7151;52.246;4.820;2022-08-23T02:32:46;5.37;;;4.13;;
14141;SDS011;7151;52.246;4.820;2022-08-23T02:35:12;7.07;;;3.83;;
14141;SDS011;7151;52.246;4.820;2022-08-23T02:37:37;7.37;;;3.47;;
14141;SDS011;7151;52.246;4.820;2022-08-23T02:40:04;6.50;;;3.40;;
14141;SDS011;7151;52.246;4.820;2022-08-23T02:42:30;6.37;;;2.90;;
14141;SDS011;7151;52.246;4.820;2022-08-23T02:44:55;7.57;;;3.27;;
14141;SDS011;7151;52.246;4.820;2022-08-23T02:47:21;5.80;;;3.70;;
14141;SDS011;7151;52.246;4.820;2022-08-23T02:49:47;4.37;;;3.80;;
14141;SDS011;7151;52.246;4.820;2022-08-23T02:52:13;4.53;;;3.70;;
14141;SDS011;7151;52.246;4.820;2022-08-23T02:54:39;8.03;;;3.93;;
14141;SDS011;7151;52.246;4.820;2022-08-23T02:57:04;4.30;;;3.00;;
14141;SDS011;7151;52.246;4.820;2022-08-23T02:59:30;3.43;;;2.80;;
14141;SDS011;7151;52.246;4.820;2022-08-23T03:01:56;3.67;;;2.93;;
14141;SDS011;7151;52.246;4.820;2022-08-23T03:04:21;4.73;;;3.90;;
14141;SDS011;7151;52.246;4.820;2022-08-23T03:06:47;7.63;;;3.43;;
14141;SDS011;7151;52.246;4.820;2022-08-23T03:09:13;6.30;;;3.40;;
14141;SDS011;7151;52.246;4.820;2022-08-23T03:11:42;3.73;;;3.43;;
14141;SDS011;7151;52.246;4.820;2022-08-23T03:14:08;4.20;;;3.13;;
14141;SDS011;7151;52.246;4.820;2022-08-23T03:16:34;6.07;;;3.07;;
14141;SDS011;7151;52.246;4.820;2022-08-23T03:18:59;7.03;;;2.90;;
14141;SDS011;7151;52.246;4.820;2022-08-23T03:21:26;3.80;;;3.10;;
14141;SDS011;7151;52.246;4.820;2022-08-23T03:23:51;4.10;;;3.70;;
14141;SDS011;7151;52.246;4.820;2022-08-23T03:26:17;6.60;;;3.47;;
14141;SDS011;7151;52.246;4.820;2022-08-23T03:28:43;7.03;;;3.77;;
14141;SDS011;7151;52.246;4.820;2022-08-23T03:31:10;3.70;;;3.40;;
14141;SDS011;7151;52.246;4.820;2022-08-23T03:33:36;3.77;;;3.30;;
14141;SDS011;7151;52.246;4.820;2022-08-23T03:36:03;4.77;;;3.40;;
14141;SDS011;7151;52.246;4.820;2022-08-23T03:38:30;5.33;;;3.40;;
14141;SDS011;7151;52.246;4.820;2022-08-23T03:40:56;5.50;;;3.13;;
14141;SDS011;7151;52.246;4.820;2022-08-23T03:43:22;4.47;;;3.17;;
14141;SDS011;7151;52.246;4.820;2022-08-23T03:45:48;5.90;;;3.37;;
14141;SDS011;7151;52.246;4.820;2022-08-23T03:48:13;5.70;;;3.43;;
14141;SDS011;7151;52.246;4.820;2022-08-23T03:50:39;6.10;;;3.90;;
14141;SDS011;7151;52.246;4.820;2022-08-23T03:53:04;5.93;;;3.83;;
14141;SDS011;7151;52.246;4.820;2022-08-23T03:55:31;9.73;;;3.70;;
14141;SDS011;7151;52.246;4.820;2022-08-23T03:57:56;6.63;;;3.97;;
14141;SDS011;7151;52.246;4.820;2022-08-23T04:00:22;7.03;;;4.00;;
14141;SDS011;7151;52.246;4.820;2022-08-23T04:02:47;4.33;;;3.30;;
14141;SDS011;7151;52.246;4.820;2022-08-23T04:05:13;4.63;;;3.83;;
14141;SDS011;7151;52.246;4.820;2022-08-23T04:07:39;4.10;;;3.37;;
14141;SDS011;7151;52.246;4.820;2022-08-23T04:10:05;7.47;;;4.13;;
14141;SDS011;7151;52.246;4.820;2022-08-23T04:12:32;5.23;;;3.50;;
14141;SDS011;7151;52.246;4.820;2022-08-23T04:14:58;5.80;;;3.17;;
14141;SDS011;7151;52.246;4.820;2022-08-23T04:17:24;6.90;;;3.33;;
14141;SDS011;7151;52.246;4.820;2022-08-23T04:19:50;5.07;;;3.90;;
14141;SDS011;7151;52.246;4.820;2022-08-23T04:22:16;3.80;;;3.13;;
14141;SDS011;7151;52.246;4.820;2022-08-23T04:24:43;4.13;;;3.57;;
14141;SDS011;7151;52.246;4.820;2022-08-23T04:27:09;4.93;;;3.53;;
14141;SDS011;7151;52.246;4.820;2022-08-23T04:29:36;6.20;;;3.80;;
14141;SDS011;7151;52.246;4.820;2022-08-23T04:32:03;4.63;;;3.23;;
14141;SDS011;7151;52.246;4.820;2022-08-23T04:34:31;3.67;;;3.33;;
14141;SDS011;7151;52.246;4.820;2022-08-23T04:36:57;5.27;;;4.20;;
14141;SDS011;7151;52.246;4.820;2022-08-23T04:39:24;4.43;;;3.97;;
14141;SDS011;7151;52.246;4.820;2022-08-23T04:41:50;10.27;;;4.50;;
14141;SDS011;7151;52.246;4.820;2022-08-23T04:44:34;5.27;;;4.13;;
14141;SDS011;7151;52.246;4.820;2022-08-23T04:46:59;6.27;;;4.83;;
14141;SDS011;7151;52.246;4.820;2022-08-23T04:49:25;8.27;;;4.87;;
14141;SDS011;7151;52.246;4.820;2022-08-23T04:51:51;6.17;;;4.73;;
14141;SDS011;7151;52.246;4.820;2022-08-23T04:54:17;5.07;;;4.53;;
14141;SDS011;7151;52.246;4.820;2022-08-23T04:56:42;7.83;;;4.53;;
14141;SDS011;7151;52.246;4.820;2022-08-23T04:59:08;6.17;;;4.70;;
14141;SDS011;7151;52.246;4.820;2022-08-23T05:01:34;7.50;;;4.33;;
14141;SDS011;7151;52.246;4.820;2022-08-23T05:04:00;8.40;;;4.73;;
14141;SDS011;7151;52.246;4.820;2022-08-23T05:06:27;10.97;;;4.93;;
14141;SDS011;7151;52.246;4.820;2022-08-23T05:08:53;5.77;;;4.20;;
14141;SDS011;7151;52.246;4.820;2022-08-23T05:11:19;6.67;;;4.57;;
14141;SDS011;7151;52.246;4.820;2022-08-23T05:13:45;5.67;;;4.60;;
14141;SDS011;7151;52.246;4.820;2022-08-23T05:16:11;8.00;;;4.57;;
14141;SDS011;7151;52.246;4.820;2022-08-23T05:18:37;4.13;;;3.73;;
14141;SDS011;7151;52.246;4.820;2022-08-23T05:21:03;7.47;;;4.10;;
14141;SDS011;7151;52.246;4.820;2022-08-23T05:23:29;7.40;;;4.07;;
14141;SDS011;7151;52.246;4.820;2022-08-23T05:25:54;5.83;;;4.33;;
14141;SDS011;7151;52.246;4.820;2022-08-23T05:28:22;8.07;;;4.33;;
14141;SDS011;7151;52.246;4.820;2022-08-23T05:30:57;5.23;;;4.50;;
14141;SDS011;7151;52.246;4.820;2022-08-23T05:33:23;9.40;;;5.23;;
14141;SDS011;7151;52.246;4.820;2022-08-23T05:35:48;8.93;;;5.03;;
14141;SDS011;7151;52.246;4.820;2022-08-23T05:38:14;7.57;;;4.97;;
14141;SDS011;7151;52.246;4.820;2022-08-23T05:40:40;7.00;;;4.97;;
14141;SDS011;7151;52.246;4.820;2022-08-23T05:43:05;7.63;;;4.60;;
14141;SDS011;7151;52.246;4.820;2022-08-23T05:45:31;7.23;;;5.40;;
14141;SDS011;7151;52.246;4.820;2022-08-23T05:47:56;10.07;;;5.33;;
14141;SDS011;7151;52.246;4.820;2022-08-23T05:50:22;7.93;;;5.33;;
14141;SDS011;7151;52.246;4.820;2022-08-23T05:52:48;8.40;;;4.97;;
14141;SDS011;7151;52.246;4.820;2022-08-23T05:55:13;7.90;;;5.17;;
14141;SDS011;7151;52.246;4.820;2022-08-23T05:57:39;5.97;;;5.33;;
14141;SDS011;7151;52.246;4.820;2022-08-23T06:00:06;7.20;;;5.57;;
14141;SDS011;7151;52.246;4.820;2022-08-23T06:02:38;7.23;;;5.50;;
14141;SDS011;7151;52.246;4.820;2022-08-23T06:05:04;8.80;;;6.07;;
14141;SDS011;7151;52.246;4.820;2022-08-23T06:07:32;9.67;;;6.40;;
14141;SDS011;7151;52.246;4.820;2022-08-23T06:09:58;10.83;;;6.83;;
14141;SDS011;7151;52.246;4.820;2022-08-23T06:12:35;11.67;;;6.80;;
14141;SDS011;7151;52.246;4.820;2022-08-23T06:15:00;11.17;;;5.87;;
14141;SDS011;7151;52.246;4.820;2022-08-23T06:17:27;11.10;;;6.53;;
14141;SDS011;7151;52.246;4.820;2022-08-23T06:19:53;7.97;;;5.83;;
14141;SDS011;7151;52.246;4.820;2022-08-23T06:22:19;7.27;;;5.50;;
14141;SDS011;7151;52.246;4.820;2022-08-23T06:24:44;9.50;;;6.03;;
14141;SDS011;7151;52.246;4.820;2022-08-23T06:27:10;8.23;;;4.97;;
14141;SDS011;7151;52.246;4.820;2022-08-23T06:29:37;10.67;;;6.33;;
14141;SDS011;7151;52.246;4.820;2022-08-23T06:32:03;12.30;;;6.37;;
14141;SDS011;7151;52.246;4.820;2022-08-23T06:37:06;16.30;;;6.13;;
14141;SDS011;7151;52.246;4.820;2022-08-23T06:39:37;7.67;;;4.80;;
14141;SDS011;7151;52.246;4.820;2022-08-23T06:42:09;10.00;;;4.93;;
14141;SDS011;7151;52.246;4.820;2022-08-23T06:44:37;6.67;;;4.80;;
14141;SDS011;7151;52.246;4.820;2022-08-23T06:47:03;8.37;;;6.13;;
14141;SDS011;7151;52.246;4.820;2022-08-23T06:49:30;8.20;;;5.33;;
14141;SDS011;7151;52.246;4.820;2022-08-23T06:51:56;6.00;;;4.50;;
14141;SDS011;7151;52.246;4.820;2022-08-23T06:54:24;7.80;;;4.77;;
14141;SDS011;7151;52.246;4.820;2022-08-23T06:56:53;8.23;;;5.37;;
14141;SDS011;7151;52.246;4.820;2022-08-23T06:59:19;8.97;;;5.10;;
14141;SDS011;7151;52.246;4.820;2022-08-23T07:04:18;8.77;;;4.73;;
14141;SDS011;7151;52.246;4.820;2022-08-23T07:06:46;9.90;;;5.47;;
14141;SDS011;7151;52.246;4.820;2022-08-23T07:09:12;7.77;;;5.13;;
14141;SDS011;7151;52.246;4.820;2022-08-23T07:11:38;6.90;;;4.93;;
14141;SDS011;7151;52.246;4.820;2022-08-23T07:14:05;7.87;;;5.00;;
14141;SDS011;7151;52.246;4.820;2022-08-23T07:16:35;8.60;;;5.30;;
14141;SDS011;7151;52.246;4.820;2022-08-23T07:19:09;8.13;;;6.00;;
14141;SDS011;7151;52.246;4.820;2022-08-23T07:21:36;6.40;;;5.13;;
14141;SDS011;7151;52.246;4.820;2022-08-23T07:24:03;8.23;;;4.93;;
14141;SDS011;7151;52.246;4.820;2022-08-23T07:26:29;8.83;;;5.10;;
14141;SDS011;7151;52.246;4.820;2022-08-23T07:28:56;3.60;;;2.60;;
14141;SDS011;7151;52.246;4.820;2022-08-23T07:31:26;4.43;;;2.73;;
14141;SDS011;7151;52.246;4.820;2022-08-23T07:33:55;5.73;;;2.73;;
14141;SDS011;7151;52.246;4.820;2022-08-23T07:36:23;3.27;;;2.97;;
14141;SDS011;7151;52.246;4.820;2022-08-23T07:38:53;4.73;;;2.77;;
14141;SDS011;7151;52.246;4.820;2022-08-23T07:41:19;7.40;;;4.40;;
14141;SDS011;7151;52.246;4.820;2022-08-23T07:43:48;6.90;;;3.20;;
14141;SDS011;7151;52.246;4.820;2022-08-23T07:46:14;4.43;;;2.60;;
14141;SDS011;7151;52.246;4.820;2022-08-23T07:48:40;7.03;;;4.43;;
14141;SDS011;7151;52.246;4.820;2022-08-23T07:51:06;6.40;;;2.80;;
14141;SDS011;7151;52.246;4.820;2022-08-23T07:53:34;4.20;;;2.20;;
14141;SDS011;7151;52.246;4.820;2022-08-23T07:56:03;3.73;;;2.07;;
14141;SDS011;7151;52.246;4.820;2022-08-23T07:58:30;3.87;;;2.30;;
14141;SDS011;7151;52.246;4.820;2022-08-23T08:00:56;4.17;;;1.80;;
14141;SDS011;7151;52.246;4.820;2022-08-23T08:03:31;2.20;;;2.00;;
14141;SDS011;7151;52.246;4.820;2022-08-23T08:05:57;3.10;;;2.23;;
14141;SDS011;7151;52.246;4.820;2022-08-23T08:08:25;5.27;;;2.70;;
14141;SDS011;7151;52.246;4.820;2022-08-23T08:10:52;6.73;;;2.10;;
14141;SDS011;7151;52.246;4.820;2022-08-23T08:13:18;2.67;;;1.70;;
14141;SDS011;7151;52.246;4.820;2022-08-23T08:15:43;5.60;;;1.93;;
14141;SDS011;7151;52.246;4.820;2022-08-23T08:18:09;2.87;;;2.10;;
14141;SDS011;7151;52.246;4.820;2022-08-23T08:20:34;6.30;;;2.60;;
14141;SDS011;7151;52.246;4.820;2022-08-23T08:23:01;3.47;;;2.30;;
14141;SDS011;7151;52.246;4.820;2022-08-23T08:25:27;3.87;;;2.50;;
14141;SDS011;7151;52.246;4.820;2022-08-23T08:27:54;4.00;;;1.90;;
14141;SDS011;7151;52.246;4.820;2022-08-23T08:30:21;6.60;;;3.07;;
14141;SDS011;7151;52.246;4.820;2022-08-23T08:32:47;2.60;;;1.83;;
14141;SDS011;7151;52.246;4.820;2022-08-23T08:35:12;2.83;;;1.93;;
14141;SDS011;7151;52.246;4.820;2022-08-23T08:37:38;4.03;;;2.80;;
14141;SDS011;7151;52.246;4.820;2022-08-23T08:40:04;8.93;;;2.20;;
14141;SDS011;7151;52.246;4.820;2022-08-23T08:42:43;2.57;;;1.77;;
14141;SDS011;7151;52.246;4.820;2022-08-23T08:45:17;4.30;;;1.77;;
14141;SDS011;7151;52.246;4.820;2022-08-23T08:48:03;4.80;;;2.30;;
14141;SDS011;7151;52.246;4.820;2022-08-23T08:50:42;2.40;;;1.73;;
14141;SDS011;7151;52.246;4.820;2022-08-23T08:53:21;2.60;;;1.57;;
14141;SDS011;7151;52.246;4.820;2022-08-23T08:55:56;3.90;;;2.30;;
14141;SDS011;7151;52.246;4.820;2022-08-23T08:58:28;2.47;;;1.60;;
14141;SDS011;7151;52.246;4.820;2022-08-23T09:01:07;4.10;;;1.93;;
14141;SDS011;7151;52.246;4.820;2022-08-23T09:03:33;3.53;;;1.83;;
14141;SDS011;7151;52.246;4.820;2022-08-23T09:06:35;4.23;;;2.37;;
14141;SDS011;7151;52.246;4.820;2022-08-23T09:09:14;11.93;;;2.20;;
14141;SDS011;7151;52.246;4.820;2022-08-23T09:12:21;4.50;;;2.00;;
14141;SDS011;7151;52.246;4.820;2022-08-23T09:17:39;3.17;;;1.70;;
14141;SDS011;7151;52.246;4.820;2022-08-23T09:20:08;3.70;;;1.50;;
14141;SDS011;7151;52.246;4.820;2022-08-23T09:23:21;2.38;;;1.48;;
14141;SDS011;7151;52.246;4.820;2022-08-23T09:25:35;2.42;;;1.00;;
14141;SDS011;7151;52.246;4.820;2022-08-23T09:28:01;2.58;;;1.30;;
14141;SDS011;7151;52.246;4.820;2022-08-23T09:33:56;2.85;;;1.38;;
14141;SDS011;7151;52.246;4.820;2022-08-23T09:38:49;3.00;;;1.63;;
14141;SDS011;7151;52.246;4.820;2022-08-23T09:41:34;1.73;;;1.30;;
14141;SDS011;7151;52.246;4.820;2022-08-23T09:44:05;5.47;;;2.30;;
14141;SDS011;7151;52.246;4.820;2022-08-23T09:46:38;2.35;;;1.50;;
14141;SDS011;7151;52.246;4.820;2022-08-23T09:49:22;3.20;;;2.15;;
14141;SDS011;7151;52.246;4.820;2022-08-23T09:51:54;2.55;;;1.65;;
14141;SDS011;7151;52.246;4.820;2022-08-23T09:54:30;2.70;;;1.42;;
14141;SDS011;7151;52.246;4.820;2022-08-23T09:57:00;2.33;;;1.17;;
14141;SDS011;7151;52.246;4.820;2022-08-23T10:02:03;1.80;;;1.60;;
14141;SDS011;7151;52.246;4.820;2022-08-23T10:07:19;2.80;;;1.90;;
14141;SDS011;7151;52.246;4.820;2022-08-23T10:09:53;1.67;;;1.52;;
14141;SDS011;7151;52.246;4.820;2022-08-23T10:12:42;3.53;;;1.70;;
14141;SDS011;7151;52.246;4.820;2022-08-23T10:15:08;3.70;;;1.77;;
14141;SDS011;7151;52.246;4.820;2022-08-23T10:17:47;2.22;;;1.70;;
14141;SDS011;7151;52.246;4.820;2022-08-23T10:25:47;2.45;;;1.67;;
14141;SDS011;7151;52.246;4.820;2022-08-23T10:42:42;2.00;;;1.90;;
14141;SDS011;7151;52.246;4.820;2022-08-23T10:45:39;2.13;;;1.50;;
14141;SDS011;7151;52.246;4.820;2022-08-23T10:50:43;1.98;;;1.38;;
14141;SDS011;7151;52.246;4.820;2022-08-23T10:53:42;2.15;;;1.45;;
14141;SDS011;7151;52.246;4.820;2022-08-23T10:56:15;2.47;;;1.45;;
14141;SDS011;7151;52.246;4.820;2022-08-23T10:58:50;5.07;;;1.88;;
14141;SDS011;7151;52.246;4.820;2022-08-23T11:01:22;3.08;;;1.75;;
14141;SDS011;7151;52.246;4.820;2022-08-23T11:04:02;2.47;;;1.48;;
14141;SDS011;7151;52.246;4.820;2022-08-23T11:11:46;6.05;;;1.70;;
14141;SDS011;7151;52.246;4.820;2022-08-23T11:17:03;2.80;;;1.13;;
14141;SDS011;7151;52.246;4.820;2022-08-23T11:19:44;6.63;;;2.08;;
14141;SDS011;7151;52.246;4.820;2022-08-23T11:22:17;2.60;;;1.60;;
14141;SDS011;7151;52.246;4.820;2022-08-23T11:24:58;3.28;;;2.00;;
14141;SDS011;7151;52.246;4.820;2022-08-23T11:27:32;2.75;;;2.00;;
14141;SDS011;7151;52.246;4.820;2022-08-23T11:32:58;4.80;;;2.35;;
14141;SDS011;7151;52.246;4.820;2022-08-23T11:35:52;2.92;;;1.73;;
14141;SDS011;7151;52.246;4.820;2022-08-23T11:41:16;3.13;;;1.60;;
14141;SDS011;7151;52.246;4.820;2022-08-23T12:22:03;2.58;;;1.65;;
14141;SDS011;7151;52.246;4.820;2022-08-23T12:40:12;1.70;;;1.33;;
14141;SDS011;7151;52.246;4.820;2022-08-23T12:42:41;1.17;;;1.08;;
14141;SDS011;7151;52.246;4.820;2022-08-23T12:45:14;3.05;;;1.17;;
14141;SDS011;7151;52.246;4.820;2022-08-23T12:47:54;1.42;;;1.08;;
14141;SDS011;7151;52.246;4.820;2022-08-23T12:50:27;1.85;;;1.13;;
14141;SDS011;7151;52.246;4.820;2022-08-23T12:53:03;2.25;;;1.17;;
14141;SDS011;7151;52.246;4.820;2022-08-23T12:55:32;1.30;;;1.20;;
14141;SDS011;7151;52.246;4.820;2022-08-23T12:58:02;1.58;;;1.10;;
14141;SDS011;7151;52.246;4.820;2022-08-23T13:00:34;2.50;;;1.05;;
14141;SDS011;7151;52.246;4.820;2022-08-23T13:05:56;4.22;;;1.40;;
14141;SDS011;7151;52.246;4.820;2022-08-23T13:08:28;1.85;;;1.00;;
14141;SDS011;7151;52.246;4.820;2022-08-23T13:10:58;2.25;;;1.20;;
14141;SDS011;7151;52.246;4.820;2022-08-23T13:13:25;0.98;;;0.98;;
14141;SDS011;7151;52.246;4.820;2022-08-23T13:15:59;1.80;;;1.25;;
14141;SDS011;7151;52.246;4.820;2022-08-23T13:18:27;0.85;;;0.85;;
14141;SDS011;7151;52.246;4.820;2022-08-23T13:23:47;3.03;;;1.00;;
14141;SDS011;7151;52.246;4.820;2022-08-23T13:26:28;1.80;;;1.13;;
14141;SDS011;7151;52.246;4.820;2022-08-23T13:31:57;2.47;;;0.93;;
14141;SDS011;7151;52.246;4.820;2022-08-23T13:34:38;5.03;;;1.35;;
14141;SDS011;7151;52.246;4.820;2022-08-23T13:37:08;2.00;;;1.30;;
14141;SDS011;7151;52.246;4.820;2022-08-23T13:39:46;1.25;;;1.00;;
14141;SDS011;7151;52.246;4.820;2022-08-23T13:42:54;1.60;;;1.50;;
14141;SDS011;7151;52.246;4.820;2022-08-23T13:45:15;1.17;;;1.02;;
14141;SDS011;7151;52.246;4.820;2022-08-23T13:47:47;1.67;;;1.20;;
14141;SDS011;7151;52.246;4.820;2022-08-23T13:50:36;1.77;;;0.98;;
14141;SDS011;7151;52.246;4.820;2022-08-23T13:53:01;1.20;;;1.10;;
14141;SDS011;7151;52.246;4.820;2022-08-23T13:55:28;1.30;;;1.20;;
14141;SDS011;7151;52.246;4.820;2022-08-23T13:57:55;1.48;;;1.20;;
14141;SDS011;7151;52.246;4.820;2022-08-23T14:00:22;2.38;;;1.00;;
14141;SDS011;7151;52.246;4.820;2022-08-23T14:02:49;1.52;;;1.20;;
14141;SDS011;7151;52.246;4.820;2022-08-23T14:05:17;1.10;;;1.00;;
14141;SDS011;7151;52.246;4.820;2022-08-23T14:07:45;2.35;;;1.30;;
14141;SDS011;7151;52.246;4.820;2022-08-23T14:10:13;1.83;;;1.48;;
14141;SDS011;7151;52.246;4.820;2022-08-23T14:12:39;1.90;;;1.40;;
14141;SDS011;7151;52.246;4.820;2022-08-23T14:15:08;1.92;;;1.25;;
14141;SDS011;7151;52.246;4.820;2022-08-23T14:17:40;1.90;;;1.80;;
14141;SDS011;7151;52.246;4.820;2022-08-23T14:20:07;1.23;;;1.13;;
14141;SDS011;7151;52.246;4.820;2022-08-23T14:22:36;2.00;;;1.77;;
14141;SDS011;7151;52.246;4.820;2022-08-23T14:25:02;3.42;;;1.65;;
14141;SDS011;7151;52.246;4.820;2022-08-23T14:27:28;2.75;;;1.40;;
14141;SDS011;7151;52.246;4.820;2022-08-23T14:29:54;1.98;;;1.80;;
14141;SDS011;7151;52.246;4.820;2022-08-23T14:32:20;2.13;;;1.45;;
14141;SDS011;7151;52.246;4.820;2022-08-23T14:34:45;4.63;;;2.30;;
14141;SDS011;7151;52.246;4.820;2022-08-23T14:37:11;1.30;;;1.20;;
14141;SDS011;7151;52.246;4.820;2022-08-23T14:39:36;2.60;;;1.25;;
14141;SDS011;7151;52.246;4.820;2022-08-23T14:42:02;4.72;;;1.55;;
14141;SDS011;7151;52.246;4.820;2022-08-23T14:44:29;1.80;;;1.50;;
14141;SDS011;7151;52.246;4.820;2022-08-23T14:46:55;1.55;;;1.30;;
14141;SDS011;7151;52.246;4.820;2022-08-23T14:49:20;1.73;;;1.38;;
14141;SDS011;7151;52.246;4.820;2022-08-23T14:51:46;2.80;;;1.65;;
14141;SDS011;7151;52.246;4.820;2022-08-23T14:54:16;1.98;;;1.42;;
14141;SDS011;7151;52.246;4.820;2022-08-23T14:56:45;3.53;;;2.00;;
14141;SDS011;7151;52.246;4.820;2022-08-23T14:59:10;2.45;;;1.35;;
14141;SDS011;7151;52.246;4.820;2022-08-23T15:01:37;1.55;;;1.45;;
14141;SDS011;7151;52.246;4.820;2022-08-23T15:04:03;1.75;;;1.58;;
14141;SDS011;7151;52.246;4.820;2022-08-23T15:06:29;3.00;;;1.75;;
14141;SDS011;7151;52.246;4.820;2022-08-23T15:08:55;1.67;;;1.58;;
14141;SDS011;7151;52.246;4.820;2022-08-23T15:11:20;2.47;;;1.70;;
14141;SDS011;7151;52.246;4.820;2022-08-23T15:13:46;1.60;;;1.50;;
14141;SDS011;7151;52.246;4.820;2022-08-23T15:16:13;2.55;;;1.60;;
14141;SDS011;7151;52.246;4.820;2022-08-23T15:18:46;3.67;;;1.80;;
14141;SDS011;7151;52.246;4.820;2022-08-23T15:21:15;3.42;;;1.58;;
14141;SDS011;7151;52.246;4.820;2022-08-23T15:23:41;2.97;;;1.83;;
14141;SDS011;7151;52.246;4.820;2022-08-23T15:26:08;3.58;;;2.38;;
14141;SDS011;7151;52.246;4.820;2022-08-23T15:28:35;3.90;;;2.15;;
14141;SDS011;7151;52.246;4.820;2022-08-23T15:31:03;3.08;;;1.95;;
14141;SDS011;7151;52.246;4.820;2022-08-23T15:33:29;3.40;;;1.63;;
14141;SDS011;7151;52.246;4.820;2022-08-23T15:35:57;2.25;;;1.60;;
14141;SDS011;7151;52.246;4.820;2022-08-23T15:38:25;4.10;;;2.08;;
14141;SDS011;7151;52.246;4.820;2022-08-23T15:40:52;2.08;;;1.65;;
14141;SDS011;7151;52.246;4.820;2022-08-23T15:43:19;2.55;;;1.60;;
14141;SDS011;7151;52.246;4.820;2022-08-23T15:45:46;3.10;;;2.35;;
14141;SDS011;7151;52.246;4.820;2022-08-23T15:48:55;3.13;;;2.30;;
14141;SDS011;7151;52.246;4.820;2022-08-23T15:51:05;2.33;;;2.10;;
14141;SDS011;7151;52.246;4.820;2022-08-23T15:53:31;3.38;;;1.92;;
14141;SDS011;7151;52.246;4.820;2022-08-23T15:55:57;3.80;;;1.92;;
14141;SDS011;7151;52.246;4.820;2022-08-23T15:58:24;2.03;;;1.77;;
14141;SDS011;7151;52.246;4.820;2022-08-23T16:00:51;2.00;;;1.90;;
14141;SDS011;7151;52.246;4.820;2022-08-23T16:03:18;1.95;;;1.80;;
14141;SDS011;7151;52.246;4.820;2022-08-23T16:05:46;3.33;;;2.40;;
14141;SDS011;7151;52.246;4.820;2022-08-23T16:08:17;2.58;;;1.98;;
14141;SDS011;7151;52.246;4.820;2022-08-23T16:10:47;2.28;;;1.80;;
14141;SDS011;7151;52.246;4.820;2022-08-23T16:13:13;2.53;;;2.00;;
14141;SDS011;7151;52.246;4.820;2022-08-23T16:15:39;2.10;;;1.70;;
14141;SDS011;7151;52.246;4.820;2022-08-23T16:18:05;2.50;;;1.77;;
14141;SDS011;7151;52.246;4.820;2022-08-23T16:20:31;2.20;;;2.00;;
14141;SDS011;7151;52.246;4.820;2022-08-23T16:22:57;4.35;;;2.00;;
14141;SDS011;7151;52.246;4.820;2022-08-23T16:25:22;2.30;;;1.80;;
14141;SDS011;7151;52.246;4.820;2022-08-23T16:27:48;2.95;;;2.05;;
14141;SDS011;7151;52.246;4.820;2022-08-23T16:30:14;4.78;;;2.58;;
14141;SDS011;7151;52.246;4.820;2022-08-23T16:32:39;2.75;;;2.00;;
14141;SDS011;7151;52.246;4.820;2022-08-23T16:35:05;3.47;;;2.03;;
14141;SDS011;7151;52.246;4.820;2022-08-23T16:37:31;6.75;;;2.10;;
14141;SDS011;7151;52.246;4.820;2022-08-23T16:39:57;3.08;;;2.35;;
14141;SDS011;7151;52.246;4.820;2022-08-23T16:42:23;2.40;;;2.00;;
14141;SDS011;7151;52.246;4.820;2022-08-23T16:44:49;2.60;;;2.17;;
14141;SDS011;7151;52.246;4.820;2022-08-23T16:47:14;2.65;;;2.05;;
14141;SDS011;7151;52.246;4.820;2022-08-23T16:49:41;2.90;;;1.88;;
14141;SDS011;7151;52.246;4.820;2022-08-23T16:52:07;2.25;;;2.00;;
14141;SDS011;7151;52.246;4.820;2022-08-23T16:54:34;3.40;;;2.03;;
14141;SDS011;7151;52.246;4.820;2022-08-23T16:57:00;6.47;;;1.80;;
14141;SDS011;7151;52.246;4.820;2022-08-23T16:59:26;3.00;;;2.10;;
14141;SDS011;7151;52.246;4.820;2022-08-23T17:01:56;4.35;;;2.22;;
14141;SDS011;7151;52.246;4.820;2022-08-23T17:04:25;3.05;;;2.10;;
14141;SDS011;7151;52.246;4.820;2022-08-23T17:06:52;2.95;;;2.22;;
14141;SDS011;7151;52.246;4.820;2022-08-23T17:09:19;3.13;;;2.03;;
14141;SDS011;7151;52.246;4.820;2022-08-23T17:11:45;4.10;;;1.77;;
14141;SDS011;7151;52.246;4.820;2022-08-23T17:14:11;2.63;;;2.10;;